createdAt,value
2019-03-08T00:00:13.487Z,27.05
2019-03-08T00:00:48.875Z,38.50
2019-03-08T00:01:24.588Z,30.09
2019-03-08T00:01:59.718Z,24.17
2019-03-08T00:02:35.203Z,37.70
2019-03-08T00:03:11.044Z,32.26
2019-03-08T00:03:46.364Z,25.61
2019-03-08T00:04:21.578Z,30.97
2019-03-08T00:04:57.286Z,31.53
2019-03-08T00:05:32.583Z,30.25
2019-03-08T00:06:07.806Z,29.37
2019-03-08T00:06:43.494Z,21.45
2019-03-08T00:07:19.263Z,21.05
2019-03-08T00:07:54.575Z,27.45
2019-03-08T00:08:30.036Z,25.29
2019-03-08T00:09:05.442Z,42.82
2019-03-08T00:09:40.769Z,28.57
2019-03-08T00:10:16.359Z,18.17
2019-03-08T00:10:51.900Z,23.21
2019-03-08T00:11:27.606Z,45.94
2019-03-08T00:12:03.016Z,43.78
2019-03-08T00:12:38.112Z,25.05
2019-03-08T00:13:13.436Z,23.77
2019-03-08T00:13:48.985Z,29.93
2019-03-08T00:14:24.502Z,28.49
2019-03-08T00:14:59.912Z,29.69
2019-03-08T00:15:35.197Z,19.93
2019-03-08T00:16:10.433Z,30.65
2019-03-08T00:16:45.943Z,33.30
2019-03-08T00:17:21.263Z,22.57
2019-03-08T00:17:56.647Z,15.05
2019-03-08T00:18:32.083Z,22.49
2019-03-08T00:19:07.484Z,36.90
2019-03-08T00:19:43.015Z,18.41
2019-03-08T00:20:18.097Z,33.70
2019-03-08T00:20:53.327Z,42.66
2019-03-08T00:21:28.832Z,40.42
2019-03-08T00:22:04.159Z,30.01
2019-03-08T00:22:39.558Z,40.42
2019-03-08T00:23:14.986Z,39.38
2019-03-08T00:23:51.339Z,13.69
2019-03-08T00:24:27.552Z,26.33
2019-03-08T00:25:03.038Z,22.81
2019-03-08T00:25:38.387Z,26.89
2019-03-08T00:26:13.883Z,30.89
2019-03-08T00:26:49.412Z,24.89
2019-03-08T00:27:24.827Z,18.81
2019-03-08T00:28:00.204Z,27.29
2019-03-08T00:28:35.436Z,21.37
2019-03-08T00:29:10.888Z,32.98
2019-03-08T00:29:45.988Z,48.10
2019-03-08T00:30:21.592Z,34.02
2019-03-08T00:30:57.033Z,24.65
2019-03-08T00:31:32.511Z,16.89
2019-03-08T00:32:07.784Z,18.41
2019-03-08T00:32:43.151Z,24.09
2019-03-08T00:33:18.651Z,22.33
2019-03-08T00:33:54.073Z,28.65
2019-03-08T00:34:29.189Z,18.33
2019-03-08T00:35:04.679Z,18.41
2019-03-08T00:35:39.901Z,18.25
2019-03-08T00:36:15.899Z,24.81
2019-03-08T00:36:51.123Z,23.13
2019-03-08T00:37:26.318Z,27.93
2019-03-08T00:38:01.853Z,16.09
2019-03-08T00:38:36.966Z,13.61
2019-03-08T00:39:12.289Z,35.70
2019-03-08T00:39:47.479Z,37.62
2019-03-08T00:40:22.902Z,24.65
2019-03-08T00:40:58.198Z,42.02
2019-03-08T00:41:33.823Z,33.94
2019-03-08T00:42:09.430Z,25.37
2019-03-08T00:42:44.946Z,21.05
2019-03-08T00:43:20.355Z,27.45
2019-03-08T00:43:55.767Z,24.73
2019-03-08T00:44:31.168Z,27.85
2019-03-08T00:45:06.584Z,17.37
2019-03-08T00:45:42.078Z,22.73
2019-03-08T00:46:17.502Z,16.97
2019-03-08T00:46:52.827Z,15.21
2019-03-08T00:47:28.141Z,19.13
2019-03-08T00:48:03.473Z,17.05
2019-03-08T00:48:38.892Z,24.17
2019-03-08T00:49:14.323Z,27.53
2019-03-08T00:49:49.742Z,13.05
2019-03-08T00:50:25.264Z,34.90
2019-03-08T00:51:00.757Z,31.94
2019-03-08T00:51:36.067Z,22.17
2019-03-08T00:52:11.253Z,17.05
2019-03-08T00:52:46.806Z,10.81
2019-03-08T00:53:21.924Z,14.33
2019-03-08T00:53:57.044Z,5.44
2019-03-08T00:54:32.534Z,5.60
2019-03-08T00:55:07.763Z,17.37
2019-03-08T00:55:43.251Z,30.01
2019-03-08T00:56:18.378Z,26.89
2019-03-08T00:56:53.873Z,15.45
2019-03-08T00:57:28.999Z,20.49
2019-03-08T00:58:04.184Z,12.73
2019-03-08T00:58:39.462Z,11.29
2019-03-08T00:59:15.054Z,17.37
2019-03-08T00:59:50.404Z,14.01
2019-03-08T01:00:25.694Z,27.21
2019-03-08T01:01:01.213Z,21.69
2019-03-08T01:01:36.621Z,11.69
2019-03-08T01:02:12.033Z,14.49
2019-03-08T01:02:47.336Z,18.01
2019-03-08T01:03:22.876Z,10.08
2019-03-08T01:03:58.665Z,18.25
2019-03-08T01:04:34.107Z,14.25
2019-03-08T01:05:09.513Z,10.89
2019-03-08T01:05:44.833Z,16.97
2019-03-08T01:06:20.012Z,11.61
2019-03-08T01:06:55.452Z,17.69
2019-03-08T01:07:30.653Z,16.57
2019-03-08T01:08:06.184Z,11.61
2019-03-08T01:08:41.593Z,17.61
2019-03-08T01:09:17.232Z,12.01
2019-03-08T01:09:52.452Z,12.17
2019-03-08T01:10:28.052Z,16.49
2019-03-08T01:11:03.468Z,20.89
2019-03-08T01:11:39.170Z,13.21
2019-03-08T01:12:14.576Z,9.44
2019-03-08T01:12:49.755Z,12.49
2019-03-08T01:13:25.116Z,5.84
2019-03-08T01:14:00.350Z,10.73
2019-03-08T01:14:35.923Z,13.61
2019-03-08T01:15:11.335Z,19.53
2019-03-08T01:15:46.574Z,14.41
2019-03-08T01:16:21.864Z,8.56
2019-03-08T01:16:57.180Z,26.33
2019-03-08T01:17:32.373Z,15.05
2019-03-08T01:18:07.605Z,19.13
2019-03-08T01:18:42.914Z,18.89
2019-03-08T01:19:18.163Z,14.73
2019-03-08T01:19:53.348Z,15.85
2019-03-08T01:20:28.960Z,22.73
2019-03-08T01:21:04.690Z,6.08
2019-03-08T01:21:40.249Z,16.17
2019-03-08T01:22:15.772Z,13.77
2019-03-08T01:22:51.150Z,7.68
2019-03-08T01:23:27.112Z,14.57
2019-03-08T01:24:02.751Z,14.57
2019-03-08T01:24:38.057Z,10.16
2019-03-08T01:25:13.676Z,14.57
2019-03-08T01:25:48.984Z,17.53
2019-03-08T01:26:24.405Z,22.81
2019-03-08T01:26:59.498Z,14.73
2019-03-08T01:27:34.824Z,17.53
2019-03-08T01:28:10.234Z,14.17
2019-03-08T01:28:45.481Z,17.69
2019-03-08T01:29:20.971Z,19.29
2019-03-08T01:29:56.386Z,14.33
2019-03-08T01:30:31.604Z,11.77
2019-03-08T01:31:06.994Z,20.41
2019-03-08T01:31:42.419Z,15.85
2019-03-08T01:32:17.818Z,20.01
2019-03-08T01:32:52.954Z,19.37
2019-03-08T01:33:28.153Z,17.45
2019-03-08T01:34:03.521Z,21.13
2019-03-08T01:34:38.835Z,13.85
2019-03-08T01:35:14.351Z,14.49
2019-03-08T01:35:49.644Z,14.01
2019-03-08T01:36:24.954Z,19.13
2019-03-08T01:37:00.150Z,14.65
2019-03-08T01:37:35.765Z,7.52
2019-03-08T01:38:11.055Z,17.45
2019-03-08T01:38:46.466Z,13.93
2019-03-08T01:39:21.895Z,20.65
2019-03-08T01:39:57.422Z,15.45
2019-03-08T01:40:32.911Z,9.04
2019-03-08T01:41:08.127Z,9.76
2019-03-08T01:41:43.651Z,14.81
2019-03-08T01:42:19.179Z,16.01
2019-03-08T01:42:54.280Z,11.85
2019-03-08T01:43:29.884Z,14.89
2019-03-08T01:44:05.068Z,13.29
2019-03-08T01:44:40.206Z,12.73
2019-03-08T01:45:15.494Z,14.89
2019-03-08T01:45:51.007Z,15.05
2019-03-08T01:46:26.214Z,12.01
2019-03-08T01:47:01.627Z,16.57
2019-03-08T01:47:36.814Z,12.65
2019-03-08T01:48:12.030Z,10.73
2019-03-08T01:48:47.144Z,12.17
2019-03-08T01:49:22.520Z,6.96
2019-03-08T01:49:57.812Z,8.80
2019-03-08T01:50:33.433Z,14.17
2019-03-08T01:51:08.719Z,17.53
2019-03-08T01:51:43.937Z,18.25
2019-03-08T01:52:19.358Z,12.65
2019-03-08T01:52:54.571Z,12.65
2019-03-08T01:53:29.989Z,16.09
2019-03-08T01:54:05.272Z,16.49
2019-03-08T01:54:40.619Z,10.24
2019-03-08T01:55:16.017Z,15.53
2019-03-08T01:55:51.254Z,12.57
2019-03-08T01:56:26.665Z,10.00
2019-03-08T01:57:01.996Z,1.76
2019-03-08T01:57:37.293Z,6.24
2019-03-08T01:58:12.656Z,8.32
2019-03-08T01:58:48.044Z,5.68
2019-03-08T01:59:23.295Z,6.64
2019-03-08T01:59:59.001Z,3.60
2019-03-08T02:00:34.408Z,2.72
2019-03-08T02:01:09.801Z,12.73
2019-03-08T02:01:45.231Z,17.93
2019-03-08T02:02:20.318Z,12.49
2019-03-08T02:02:55.550Z,9.52
2019-03-08T02:03:30.937Z,5.76
2019-03-08T02:04:06.252Z,8.16
2019-03-08T02:04:41.802Z,14.09
2019-03-08T02:05:17.007Z,14.65
2019-03-08T02:05:52.188Z,12.49
2019-03-08T02:06:27.812Z,3.68
2019-03-08T02:07:03.340Z,6.48
2019-03-08T02:07:38.868Z,14.89
2019-03-08T02:08:14.059Z,14.65
2019-03-08T02:08:49.204Z,7.60
2019-03-08T02:09:24.304Z,15.53
2019-03-08T02:09:59.524Z,13.93
2019-03-08T02:10:34.827Z,13.85
2019-03-08T02:11:10.355Z,18.81
2019-03-08T02:11:45.740Z,12.25
2019-03-08T02:12:21.086Z,13.45
2019-03-08T02:12:56.389Z,6.88
2019-03-08T02:13:31.608Z,13.53
2019-03-08T02:14:06.817Z,11.21
2019-03-08T02:14:42.252Z,10.65
2019-03-08T02:15:17.650Z,9.68
2019-03-08T02:15:52.880Z,11.21
2019-03-08T02:16:28.369Z,9.36
2019-03-08T02:17:03.592Z,12.25
2019-03-08T02:17:38.911Z,10.32
2019-03-08T02:18:14.400Z,7.76
2019-03-08T02:18:49.744Z,6.08
2019-03-08T02:19:25.072Z,10.40
2019-03-08T02:20:00.498Z,13.53
2019-03-08T02:20:35.890Z,7.68
2019-03-08T02:21:11.205Z,9.28
2019-03-08T02:21:46.985Z,16.33
2019-03-08T02:22:23.532Z,8.72
2019-03-08T02:22:57.695Z,11.69
2019-03-08T02:23:33.100Z,6.64
2019-03-08T02:24:08.504Z,9.84
2019-03-08T02:24:43.742Z,8.72
2019-03-08T02:25:19.032Z,13.53
2019-03-08T02:25:54.454Z,10.89
2019-03-08T02:26:29.540Z,15.69
2019-03-08T02:27:04.953Z,12.09
2019-03-08T02:27:40.339Z,11.93
2019-03-08T02:28:15.854Z,8.08
2019-03-08T02:28:51.137Z,13.21
2019-03-08T02:29:26.698Z,12.01
2019-03-08T02:30:01.775Z,11.21
2019-03-08T02:30:37.190Z,10.08
2019-03-08T02:31:12.358Z,10.81
2019-03-08T02:31:47.582Z,10.40
2019-03-08T02:32:22.867Z,5.52
2019-03-08T02:32:58.186Z,9.20
2019-03-08T02:33:33.501Z,7.52
2019-03-08T02:34:08.781Z,12.81
2019-03-08T02:34:44.028Z,8.08
2019-03-08T02:35:19.216Z,8.00
2019-03-08T02:35:54.526Z,8.00
2019-03-08T02:36:29.821Z,13.93
2019-03-08T02:37:05.038Z,9.92
2019-03-08T02:37:40.471Z,18.65
2019-03-08T02:38:15.959Z,16.41
2019-03-08T02:38:51.174Z,10.57
2019-03-08T02:39:26.540Z,10.73
2019-03-08T02:40:02.160Z,4.80
2019-03-08T02:40:37.341Z,3.92
2019-03-08T02:41:12.860Z,6.24
2019-03-08T02:41:48.047Z,6.32
2019-03-08T02:42:23.354Z,7.60
2019-03-08T02:42:58.534Z,9.60
2019-03-08T02:43:33.938Z,7.36
2019-03-08T02:44:09.225Z,7.36
2019-03-08T02:44:44.954Z,8.72
2019-03-08T02:45:20.348Z,9.04
2019-03-08T02:45:55.770Z,6.24
2019-03-08T02:46:31.057Z,7.04
2019-03-08T02:47:06.393Z,12.65
2019-03-08T02:47:41.557Z,8.72
2019-03-08T02:48:16.974Z,8.72
2019-03-08T02:48:52.171Z,8.40
2019-03-08T02:49:27.713Z,7.92
2019-03-08T02:50:03.105Z,8.80
2019-03-08T02:50:38.403Z,12.01
2019-03-08T02:51:14.086Z,9.76
2019-03-08T02:51:49.398Z,9.52
2019-03-08T02:52:25.180Z,7.92
2019-03-08T02:53:00.381Z,7.92
2019-03-08T02:53:35.789Z,4.48
2019-03-08T02:54:11.165Z,5.68
2019-03-08T02:54:46.504Z,8.48
2019-03-08T02:55:21.884Z,9.60
2019-03-08T02:55:57.201Z,14.25
2019-03-08T02:56:32.531Z,10.48
2019-03-08T02:57:07.616Z,10.40
2019-03-08T02:57:42.849Z,10.48
2019-03-08T02:58:18.248Z,7.12
2019-03-08T02:58:53.572Z,11.85
2019-03-08T02:59:28.788Z,11.77
2019-03-08T03:00:04.313Z,8.40
2019-03-08T03:00:39.690Z,7.20
2019-03-08T03:01:15.154Z,10.65
2019-03-08T03:01:50.335Z,6.48
2019-03-08T03:02:25.557Z,7.52
2019-03-08T03:03:00.959Z,10.57
2019-03-08T03:03:36.157Z,9.60
2019-03-08T03:04:11.356Z,18.17
2019-03-08T03:04:46.485Z,12.73
2019-03-08T03:05:21.978Z,14.25
2019-03-08T03:05:57.494Z,10.08
2019-03-08T03:06:33.106Z,10.81
2019-03-08T03:07:08.428Z,14.73
2019-03-08T03:07:43.716Z,12.97
2019-03-08T03:08:19.067Z,11.93
2019-03-08T03:08:54.496Z,9.92
2019-03-08T03:09:30.108Z,17.13
2019-03-08T03:10:05.492Z,13.45
2019-03-08T03:10:40.886Z,6.72
2019-03-08T03:11:16.165Z,15.53
2019-03-08T03:11:51.482Z,17.85
2019-03-08T03:12:27.062Z,12.09
2019-03-08T03:13:02.663Z,14.09
2019-03-08T03:13:38.177Z,12.41
2019-03-08T03:14:13.259Z,10.32
2019-03-08T03:14:48.498Z,5.36
2019-03-08T03:15:23.777Z,14.81
2019-03-08T03:15:59.190Z,12.17
2019-03-08T03:16:35.086Z,7.20
2019-03-08T03:17:10.304Z,17.77
2019-03-08T03:17:45.682Z,10.57
2019-03-08T03:18:20.998Z,7.36
2019-03-08T03:18:56.633Z,6.48
2019-03-08T03:19:32.033Z,6.48
2019-03-08T03:20:07.415Z,12.81
2019-03-08T03:20:42.847Z,10.57
2019-03-08T03:21:18.355Z,12.09
2019-03-08T03:21:53.674Z,7.92
2019-03-08T03:22:29.278Z,9.36
2019-03-08T03:23:04.413Z,10.00
2019-03-08T03:23:39.629Z,10.57
2019-03-08T03:24:14.809Z,9.36
2019-03-08T03:24:50.249Z,9.60
2019-03-08T03:25:25.405Z,6.40
2019-03-08T03:26:00.474Z,8.72
2019-03-08T03:26:35.688Z,6.40
2019-03-08T03:27:11.502Z,6.96
2019-03-08T03:27:46.794Z,11.69
2019-03-08T03:28:21.900Z,9.20
2019-03-08T03:28:57.284Z,6.96
2019-03-08T03:29:32.427Z,13.85
2019-03-08T03:30:07.932Z,12.17
2019-03-08T03:30:43.731Z,9.04
2019-03-08T03:31:19.018Z,8.80
2019-03-08T03:31:54.388Z,11.05
2019-03-08T03:32:29.491Z,14.65
2019-03-08T03:33:04.800Z,10.32
2019-03-08T03:33:40.205Z,11.37
2019-03-08T03:34:15.386Z,12.25
2019-03-08T03:34:50.603Z,7.20
2019-03-08T03:35:25.903Z,7.60
2019-03-08T03:36:01.430Z,9.28
2019-03-08T03:36:36.610Z,12.01
2019-03-08T03:37:12.133Z,9.68
2019-03-08T03:37:47.226Z,10.57
2019-03-08T03:38:22.833Z,18.09
2019-03-08T03:38:58.544Z,9.52
2019-03-08T03:39:33.965Z,8.56
2019-03-08T03:40:09.450Z,13.21
2019-03-08T03:40:44.760Z,25.13
2019-03-08T03:41:20.045Z,12.25
2019-03-08T03:41:55.178Z,12.49
2019-03-08T03:42:30.276Z,6.80
2019-03-08T03:43:05.882Z,13.37
2019-03-08T03:43:41.209Z,10.40
2019-03-08T03:44:16.716Z,8.88
2019-03-08T03:44:52.131Z,10.24
2019-03-08T03:45:27.739Z,10.81
2019-03-08T03:46:03.057Z,14.89
2019-03-08T03:46:38.246Z,8.64
2019-03-08T03:47:13.564Z,15.85
2019-03-08T03:47:49.193Z,16.97
2019-03-08T03:48:24.599Z,13.69
2019-03-08T03:48:59.770Z,13.29
2019-03-08T03:49:35.481Z,12.97
2019-03-08T03:50:10.863Z,11.85
2019-03-08T03:50:46.209Z,7.60
2019-03-08T03:51:21.787Z,8.56
2019-03-08T03:51:57.196Z,11.61
2019-03-08T03:52:32.598Z,6.48
2019-03-08T03:53:08.001Z,5.20
2019-03-08T03:53:43.549Z,4.72
2019-03-08T03:54:19.039Z,11.37
2019-03-08T03:54:54.455Z,12.89
2019-03-08T03:55:29.755Z,8.96
2019-03-08T03:56:05.070Z,19.21
2019-03-08T03:56:40.658Z,9.60
2019-03-08T03:57:15.891Z,9.20
2019-03-08T03:57:51.304Z,14.25
2019-03-08T03:58:26.624Z,18.01
2019-03-08T03:59:02.053Z,14.17
2019-03-08T03:59:37.367Z,11.69
2019-03-08T04:00:12.773Z,9.60
2019-03-08T04:00:48.185Z,8.40
2019-03-08T04:01:23.574Z,10.40
2019-03-08T04:01:59.215Z,5.04
2019-03-08T04:02:34.704Z,9.44
2019-03-08T04:03:10.229Z,11.05
2019-03-08T04:03:45.440Z,7.76
2019-03-08T04:04:20.979Z,6.00
2019-03-08T04:04:56.299Z,10.24
2019-03-08T04:05:31.696Z,15.29
2019-03-08T04:06:07.255Z,15.53
2019-03-08T04:06:42.559Z,13.05
2019-03-08T04:07:17.991Z,11.85
2019-03-08T04:07:53.191Z,12.33
2019-03-08T04:08:28.510Z,19.85
2019-03-08T04:09:03.681Z,10.73
2019-03-08T04:09:39.076Z,9.68
2019-03-08T04:10:14.573Z,8.88
2019-03-08T04:10:49.890Z,14.25
2019-03-08T04:11:25.450Z,3.92
2019-03-08T04:12:00.759Z,7.20
2019-03-08T04:12:36.290Z,6.16
2019-03-08T04:13:12.030Z,7.20
2019-03-08T04:13:47.622Z,6.48
2019-03-08T04:14:23.338Z,8.88
2019-03-08T04:14:58.750Z,6.08
2019-03-08T04:15:35.079Z,6.56
2019-03-08T04:16:10.582Z,15.13
2019-03-08T04:16:45.997Z,9.04
2019-03-08T04:17:21.207Z,6.40
2019-03-08T04:17:56.614Z,9.12
2019-03-08T04:18:32.044Z,4.88
2019-03-08T04:19:07.113Z,3.52
2019-03-08T04:19:42.443Z,5.12
2019-03-08T04:20:18.042Z,6.56
2019-03-08T04:20:53.259Z,8.56
2019-03-08T04:21:28.570Z,14.25
2019-03-08T04:22:03.869Z,10.24
2019-03-08T04:22:38.981Z,3.60
2019-03-08T04:23:14.500Z,9.44
2019-03-08T04:23:49.603Z,11.29
2019-03-08T04:24:24.936Z,10.57
2019-03-08T04:25:00.308Z,9.20
2019-03-08T04:25:35.602Z,10.24
2019-03-08T04:26:11.287Z,8.96
2019-03-08T04:26:46.994Z,12.09
2019-03-08T04:27:22.511Z,14.25
2019-03-08T04:27:58.346Z,14.49
2019-03-08T04:28:33.805Z,8.80
2019-03-08T04:29:09.106Z,4.00
2019-03-08T04:29:44.410Z,8.40
2019-03-08T04:30:19.730Z,8.96
2019-03-08T04:30:54.945Z,11.37
2019-03-08T04:31:30.171Z,9.52
2019-03-08T04:32:05.487Z,9.20
2019-03-08T04:32:40.791Z,13.21
2019-03-08T04:33:16.115Z,10.48
2019-03-08T04:33:51.804Z,15.93
2019-03-08T04:34:27.318Z,9.84
2019-03-08T04:35:02.814Z,10.48
2019-03-08T04:35:38.128Z,4.80
2019-03-08T04:36:13.606Z,9.68
2019-03-08T04:36:49.013Z,12.25
2019-03-08T04:37:24.416Z,7.36
2019-03-08T04:38:00.038Z,6.88
2019-03-08T04:38:35.253Z,3.12
2019-03-08T04:39:10.514Z,12.33
2019-03-08T04:39:45.834Z,7.68
2019-03-08T04:40:21.318Z,11.37
2019-03-08T04:40:56.435Z,5.52
2019-03-08T04:41:31.623Z,8.96
2019-03-08T04:42:06.944Z,14.65
2019-03-08T04:42:42.113Z,13.77
2019-03-08T04:43:17.518Z,16.65
2019-03-08T04:43:53.045Z,11.21
2019-03-08T04:44:28.236Z,9.60
2019-03-08T04:45:03.449Z,8.56
2019-03-08T04:45:38.735Z,7.04
2019-03-08T04:46:14.030Z,6.08
2019-03-08T04:46:49.541Z,3.84
2019-03-08T04:47:24.727Z,4.08
2019-03-08T04:48:00.129Z,11.21
2019-03-08T04:48:35.577Z,8.80
2019-03-08T04:49:10.985Z,4.96
2019-03-08T04:49:46.295Z,6.32
2019-03-08T04:50:21.671Z,13.53
2019-03-08T04:50:56.682Z,13.21
2019-03-08T04:51:31.769Z,13.45
2019-03-08T04:52:06.878Z,12.33
2019-03-08T04:52:41.961Z,9.60
2019-03-08T04:53:17.583Z,13.21
2019-03-08T04:53:52.953Z,14.33
2019-03-08T04:54:28.540Z,15.77
2019-03-08T04:55:03.978Z,11.61
2019-03-08T04:55:39.265Z,9.36
2019-03-08T04:56:14.709Z,7.52
2019-03-08T04:56:50.134Z,8.56
2019-03-08T04:57:25.471Z,6.88
2019-03-08T04:58:01.148Z,6.88
2019-03-08T04:58:36.365Z,6.00
2019-03-08T04:59:11.913Z,11.45
2019-03-08T04:59:50.519Z,12.97
2019-03-08T05:00:25.930Z,11.45
2019-03-08T05:01:01.257Z,7.12
2019-03-08T05:01:36.675Z,11.61
2019-03-08T05:02:12.157Z,12.57
2019-03-08T05:02:47.839Z,9.12
2019-03-08T05:03:23.504Z,8.16
2019-03-08T05:03:58.685Z,8.00
2019-03-08T05:04:33.706Z,15.29
2019-03-08T05:05:08.817Z,9.36
2019-03-08T05:05:44.096Z,11.21
2019-03-08T05:06:19.311Z,4.08
2019-03-08T05:06:54.827Z,15.45
2019-03-08T05:07:30.330Z,10.48
2019-03-08T05:08:05.829Z,12.81
2019-03-08T05:08:41.134Z,8.56
2019-03-08T05:09:16.555Z,11.77
2019-03-08T05:09:51.963Z,16.89
2019-03-08T05:10:27.283Z,8.88
2019-03-08T05:11:02.562Z,10.73
2019-03-08T05:11:37.763Z,12.09
2019-03-08T05:12:13.078Z,6.32
2019-03-08T05:12:48.258Z,16.17
2019-03-08T05:13:23.601Z,20.01
2019-03-08T05:13:59.172Z,20.01
2019-03-08T05:14:34.795Z,8.32
2019-03-08T05:15:10.327Z,6.16
2019-03-08T05:15:46.011Z,7.36
2019-03-08T05:16:21.423Z,10.24
2019-03-08T05:16:56.728Z,8.32
2019-03-08T05:17:31.962Z,11.13
2019-03-08T05:18:06.977Z,4.48
2019-03-08T05:18:42.487Z,7.60
2019-03-08T05:19:17.994Z,9.60
2019-03-08T05:19:53.372Z,6.08
2019-03-08T05:20:28.691Z,8.88
2019-03-08T05:21:04.182Z,9.04
2019-03-08T05:21:39.681Z,15.93
2019-03-08T05:22:14.794Z,8.16
2019-03-08T05:22:49.979Z,17.13
2019-03-08T05:23:25.419Z,14.33
2019-03-08T05:24:00.999Z,5.76
2019-03-08T05:24:36.209Z,8.96
2019-03-08T05:25:11.627Z,5.76
2019-03-08T05:25:47.232Z,7.84
2019-03-08T05:26:22.440Z,9.04
2019-03-08T05:26:57.630Z,7.28
2019-03-08T05:27:32.638Z,10.48
2019-03-08T05:28:07.969Z,4.72
2019-03-08T05:28:43.101Z,7.52
2019-03-08T05:29:18.585Z,10.57
2019-03-08T05:29:53.900Z,6.08
2019-03-08T05:30:29.530Z,7.76
2019-03-08T05:31:04.631Z,9.68
2019-03-08T05:31:39.858Z,12.49
2019-03-08T05:32:15.039Z,7.76
2019-03-08T05:32:50.458Z,12.41
2019-03-08T05:33:25.758Z,11.85
2019-03-08T05:34:00.999Z,16.33
2019-03-08T05:34:36.209Z,10.97
2019-03-08T05:35:11.798Z,8.64
2019-03-08T05:35:47.024Z,6.56
2019-03-08T05:36:22.323Z,10.40
2019-03-08T05:36:57.822Z,11.53
2019-03-08T05:37:33.115Z,2.16
2019-03-08T05:38:08.226Z,8.64
2019-03-08T05:38:43.577Z,7.68
2019-03-08T05:39:19.067Z,5.68
2019-03-08T05:39:54.380Z,9.44
2019-03-08T05:40:29.974Z,12.57
2019-03-08T05:41:05.573Z,6.40
2019-03-08T05:41:41.188Z,15.69
2019-03-08T05:42:16.289Z,7.76
2019-03-08T05:42:51.385Z,8.64
2019-03-08T05:43:26.809Z,8.16
2019-03-08T05:44:02.603Z,3.60
2019-03-08T05:44:47.112Z,5.12
2019-03-08T05:45:38.972Z,10.48
2019-03-08T05:46:14.486Z,12.65
2019-03-08T05:47:10.684Z,7.44
2019-03-08T05:47:46.301Z,4.88
2019-03-08T05:48:21.403Z,5.92
2019-03-08T05:48:56.817Z,5.84
2019-03-08T05:49:32.195Z,12.65
2019-03-08T05:50:07.497Z,11.21
2019-03-08T05:50:54.321Z,6.40
2019-03-08T05:51:29.991Z,5.04
2019-03-08T05:52:05.209Z,3.52
2019-03-08T05:52:40.503Z,11.77
2019-03-08T05:53:15.812Z,12.01
2019-03-08T05:53:51.253Z,10.81
2019-03-08T05:54:36.830Z,14.81
2019-03-08T05:55:12.249Z,6.00
2019-03-08T06:02:46.198Z,2.38
2019-03-08T06:03:21.618Z,6.56
2019-03-08T06:03:57.013Z,7.36
2019-03-08T06:04:32.280Z,10.08
2019-03-08T06:05:07.968Z,8.32
2019-03-08T06:05:53.447Z,4.72
2019-03-08T06:06:28.824Z,7.28
2019-03-08T06:07:04.005Z,6.72
2019-03-08T06:07:39.357Z,11.13
2019-03-08T06:10:34.098Z,3.00
2019-03-08T06:11:09.482Z,8.16
2019-03-08T06:11:44.785Z,16.97
2019-03-08T06:12:20.283Z,3.92
2019-03-08T06:13:07.884Z,7.28
2019-03-08T06:13:43.229Z,5.84
2019-03-08T06:14:18.415Z,4.08
2019-03-08T06:14:53.582Z,7.20
2019-03-08T06:15:28.848Z,3.28
2019-03-08T06:16:15.256Z,7.60
2019-03-08T06:16:50.560Z,12.97
2019-03-08T06:17:26.167Z,12.25
2019-03-08T06:18:16.856Z,8.16
2019-03-08T06:19:02.001Z,13.29
2019-03-08T06:19:37.411Z,8.64
2019-03-08T06:20:12.709Z,9.68
2019-03-08T06:21:03.260Z,5.52
2019-03-08T06:21:40.459Z,11.77
2019-03-08T06:22:15.766Z,9.12
2019-03-08T06:22:51.340Z,12.73
2019-03-08T06:23:26.875Z,5.36
2019-03-08T06:24:01.964Z,7.04
2019-03-08T06:24:37.364Z,6.64
2019-03-08T06:25:13.035Z,6.72
2019-03-08T06:25:48.307Z,7.20
2019-03-08T06:26:23.599Z,6.00
2019-03-08T06:27:07.569Z,11.77
2019-03-08T06:27:42.753Z,8.88
2019-03-08T06:28:17.973Z,7.68
2019-03-08T06:28:53.153Z,8.24
2019-03-08T06:29:37.296Z,9.12
2019-03-08T06:30:47.783Z,6.96
2019-03-08T06:31:22.954Z,3.36
2019-03-08T06:31:58.628Z,4.40
2019-03-08T06:32:34.123Z,8.80
2019-03-08T06:33:09.502Z,10.48
2019-03-08T06:33:44.712Z,8.32
2019-03-08T06:34:20.110Z,4.24
2019-03-08T06:34:55.274Z,12.57
2019-03-08T06:35:30.467Z,7.68
2019-03-08T06:36:15.671Z,8.24
2019-03-08T06:46:15.737Z,1.81
2019-03-08T06:46:51.019Z,3.44
2019-03-08T06:47:25.980Z,5.28
2019-03-08T06:48:01.263Z,5.92
2019-03-08T06:48:36.521Z,11.29
2019-03-08T06:49:11.937Z,7.44
2019-03-08T06:49:47.224Z,6.16
2019-03-08T06:50:22.789Z,4.72
2019-03-08T06:50:57.992Z,6.72
2019-03-08T06:51:33.759Z,11.69
2019-03-08T06:52:09.275Z,8.88
2019-03-08T06:52:44.761Z,5.20
2019-03-08T06:53:20.055Z,2.56
2019-03-08T06:53:55.351Z,6.40
2019-03-08T06:54:30.923Z,9.92
2019-03-08T06:55:06.600Z,4.00
2019-03-08T06:55:41.988Z,6.48
2019-03-08T06:56:17.345Z,4.72
2019-03-08T06:56:52.936Z,4.56
2019-03-08T06:57:28.145Z,10.65
2019-03-08T06:58:03.412Z,9.84
2019-03-08T06:58:38.594Z,8.72
2019-03-08T06:59:13.877Z,6.56
2019-03-08T06:59:49.400Z,6.64
2019-03-08T07:00:24.778Z,9.52
2019-03-08T07:00:59.963Z,14.33
2019-03-08T07:01:35.343Z,8.64
2019-03-08T07:02:10.656Z,4.56
2019-03-08T07:02:45.953Z,4.40
2019-03-08T07:03:21.556Z,7.68
2019-03-08T07:03:56.945Z,11.13
2019-03-08T07:04:32.203Z,7.52
2019-03-08T07:05:07.605Z,10.89
2019-03-08T07:05:42.786Z,5.12
2019-03-08T07:06:26.534Z,1.36
2019-03-08T07:07:02.238Z,3.04
2019-03-08T07:07:37.605Z,4.72
2019-03-08T07:08:22.717Z,4.24
2019-03-08T07:08:58.311Z,5.60
2019-03-08T07:09:33.887Z,4.88
2019-03-08T07:10:09.492Z,6.24
2019-03-08T07:13:17.826Z,3.63
2019-03-08T07:13:53.124Z,7.28
2019-03-08T07:14:28.529Z,9.60
2019-03-08T07:15:03.643Z,9.12
2019-03-08T07:15:39.004Z,4.32
2019-03-08T07:16:14.292Z,4.40
2019-03-08T07:16:49.554Z,0.72
2019-03-08T07:17:24.857Z,4.32
2019-03-08T07:20:50.844Z,3.48
2019-03-08T07:21:26.440Z,7.12
2019-03-08T07:22:01.732Z,6.72
2019-03-08T07:22:36.802Z,4.96
2019-03-08T07:23:12.285Z,6.00
2019-03-08T07:23:47.677Z,4.16
2019-03-08T07:24:23.080Z,11.61
2019-03-08T07:24:58.658Z,5.20
2019-03-08T07:25:33.920Z,3.60
2019-03-08T07:26:09.219Z,10.81
2019-03-08T07:26:59.494Z,3.12
2019-03-08T07:27:34.864Z,4.08
2019-03-08T07:28:10.169Z,7.68
2019-03-08T07:28:45.480Z,4.72
2019-03-08T07:29:21.085Z,14.01
2019-03-08T07:29:56.552Z,15.13
2019-03-08T07:30:31.970Z,10.73
2019-03-08T07:31:07.099Z,13.45
2019-03-08T07:31:42.679Z,7.60
2019-03-08T07:32:17.884Z,6.48
2019-03-08T07:32:53.048Z,1.12
2019-03-08T07:33:28.452Z,7.36
2019-03-08T07:34:03.953Z,5.84
2019-03-08T07:34:39.772Z,8.00
2019-03-08T07:35:14.974Z,4.80
2019-03-08T07:35:50.234Z,6.72
2019-03-08T07:36:25.433Z,9.20
2019-03-08T07:37:01.042Z,2.00
2019-03-08T07:37:36.741Z,2.40
2019-03-08T07:38:19.181Z,5.44
2019-03-08T07:38:54.584Z,7.36
2019-03-08T07:39:30.087Z,2.48
2019-03-08T07:40:05.500Z,1.92
2019-03-08T07:40:40.868Z,6.08
2019-03-08T07:41:16.276Z,2.24
2019-03-08T07:41:51.658Z,4.80
2019-03-08T07:42:26.975Z,8.56
2019-03-08T07:43:02.245Z,7.20
2019-03-08T07:43:37.516Z,11.61
2019-03-08T07:44:12.816Z,3.20
2019-03-08T07:44:48.345Z,10.89
2019-03-08T07:45:23.835Z,5.04
2019-03-08T07:45:59.526Z,2.48
2019-03-08T07:46:35.036Z,5.04
2019-03-08T07:47:10.426Z,7.20
2019-03-08T07:47:45.756Z,10.89
2019-03-08T07:48:21.201Z,4.48
2019-03-08T07:48:56.690Z,4.48
2019-03-08T07:49:32.198Z,5.68
2019-03-08T07:50:07.576Z,6.00
2019-03-08T07:50:42.873Z,1.84
2019-03-08T07:51:18.295Z,4.80
2019-03-08T07:51:53.464Z,5.60
2019-03-08T07:52:28.770Z,9.44
2019-03-08T07:53:04.277Z,10.24
2019-03-08T07:53:39.899Z,6.00
2019-03-08T07:54:15.417Z,11.45
2019-03-08T07:54:53.113Z,6.24
2019-03-08T07:55:26.047Z,6.80
2019-03-08T07:56:01.333Z,7.76
2019-03-08T07:56:36.845Z,6.64
2019-03-08T07:57:12.319Z,10.81
2019-03-08T07:57:47.852Z,11.85
2019-03-08T07:58:25.386Z,7.20
2019-03-08T07:59:00.679Z,8.24
2019-03-08T07:59:36.010Z,12.09
2019-03-08T08:00:11.081Z,5.36
2019-03-08T08:00:46.493Z,7.68
2019-03-08T08:01:21.872Z,9.52
2019-03-08T08:01:57.268Z,11.53
2019-03-08T08:02:32.590Z,9.28
2019-03-08T08:03:08.078Z,7.60
2019-03-08T08:03:43.635Z,3.20
2019-03-08T08:04:19.155Z,3.68
2019-03-08T08:04:54.636Z,3.84
2019-03-08T08:05:30.050Z,6.64
2019-03-08T08:06:05.515Z,1.60
2019-03-08T08:06:40.942Z,7.28
2019-03-08T08:07:16.318Z,6.08
2019-03-08T08:07:51.880Z,10.89
2019-03-08T08:08:27.504Z,8.80
2019-03-08T08:09:02.670Z,6.80
2019-03-08T08:09:37.990Z,7.04
2019-03-08T08:10:13.412Z,10.81
2019-03-08T08:10:48.809Z,9.20